sensor_id;sensor_type;location;lat;lon;timestamp;P1;durP1;ratioP1;P2;durP2;ratioP2
61739;SDS011;47645;45.288;12.038;2023-09-07T00:02:22;5.3;;;3.2;;
61739;SDS011;47645;45.288;12.038;2023-09-07T00:12:23;6.6;;;3.6;;
61739;SDS011;47645;45.288;12.038;2023-09-07T00:22:25;5.6;;;3.7;;
61739;SDS011;47645;45.288;12.038;2023-09-07T00:32:26;7.3;;;3.5;;
61739;SDS011;47645;45.288;12.038;2023-09-07T00:42:28;5.3;;;3.6;;
61739;SDS011;47645;45.288;12.038;2023-09-07T00:52:29;4.9;;;3.5;;
61739;SDS011;47645;45.288;12.038;2023-09-07T01:02:31;5.8;;;3.5;;
61739;SDS011;47645;45.288;12.038;2023-09-07T01:12:32;6.5;;;3.2;;
61739;SDS011;47645;45.288;12.038;2023-09-07T01:22:33;5.3;;;3.0;;
61739;SDS011;47645;45.288;12.038;2023-09-07T01:32:35;5.6;;;3.2;;
61739;SDS011;47645;45.288;12.038;2023-09-07T01:42:36;5.8;;;3.1;;
61739;SDS011;47645;45.288;12.038;2023-09-07T01:52:37;7.8;;;3.5;;
61739;SDS011;47645;45.288;12.038;2023-09-07T02:02:39;4.9;;;3.3;;
61739;SDS011;47645;45.288;12.038;2023-09-07T02:12:40;6.5;;;3.5;;
61739;SDS011;47645;45.288;12.038;2023-09-07T02:22:41;5.1;;;3.5;;
61739;SDS011;47645;45.288;12.038;2023-09-07T02:32:43;6.9;;;3.7;;
61739;SDS011;47645;45.288;12.038;2023-09-07T02:42:44;5.9;;;3.6;;
61739;SDS011;47645;45.288;12.038;2023-09-07T02:52:45;4.8;;;3.5;;
61739;SDS011;47645;45.288;12.038;2023-09-07T03:02:49;5.8;;;3.4;;
61739;SDS011;47645;45.288;12.038;2023-09-07T03:12:48;5.5;;;3.7;;
61739;SDS011;47645;45.288;12.038;2023-09-07T03:22:50;7.0;;;3.8;;
61739;SDS011;47645;45.288;12.038;2023-09-07T03:32:51;5.7;;;3.5;;
61739;SDS011;47645;45.288;12.038;2023-09-07T03:42:52;5.1;;;3.1;;
61739;SDS011;47645;45.288;12.038;2023-09-07T03:52:54;5.5;;;3.1;;
61739;SDS011;47645;45.288;12.038;2023-09-07T04:02:55;5.9;;;3.6;;
61739;SDS011;47645;45.288;12.038;2023-09-07T04:12:56;4.8;;;3.4;;
61739;SDS011;47645;45.288;12.038;2023-09-07T04:22:58;4.6;;;3.2;;
61739;SDS011;47645;45.288;12.038;2023-09-07T04:32:59;5.6;;;3.3;;
61739;SDS011;47645;45.288;12.038;2023-09-07T04:43:00;6.4;;;3.5;;
61739;SDS011;47645;45.288;12.038;2023-09-07T04:53:02;8.0;;;3.6;;
61739;SDS011;47645;45.288;12.038;2023-09-07T05:03:03;7.8;;;4.1;;
61739;SDS011;47645;45.288;12.038;2023-09-07T05:13:04;10.1;;;4.1;;
61739;SDS011;47645;45.288;12.038;2023-09-07T05:23:06;7.6;;;4.0;;
61739;SDS011;47645;45.288;12.038;2023-09-07T05:33:08;6.3;;;4.2;;
61739;SDS011;47645;45.288;12.038;2023-09-07T05:43:08;5.9;;;4.7;;
61739;SDS011;47645;45.288;12.038;2023-09-07T05:53:09;7.3;;;4.5;;
61739;SDS011;47645;45.288;12.038;2023-09-07T06:03:11;6.3;;;3.8;;
61739;SDS011;47645;45.288;12.038;2023-09-07T06:13:12;7.0;;;4.1;;
61739;SDS011;47645;45.288;12.038;2023-09-07T06:23:13;8.8;;;4.2;;
61739;SDS011;47645;45.288;12.038;2023-09-07T06:33:14;6.1;;;4.2;;
61739;SDS011;47645;45.288;12.038;2023-09-07T06:43:16;6.2;;;3.8;;
61739;SDS011;47645;45.288;12.038;2023-09-07T06:53:17;6.7;;;3.7;;
61739;SDS011;47645;45.288;12.038;2023-09-07T07:03:18;6.8;;;3.9;;
61739;SDS011;47645;45.288;12.038;2023-09-07T07:13:20;6.6;;;3.4;;
61739;SDS011;47645;45.288;12.038;2023-09-07T07:23:21;6.6;;;3.5;;
61739;SDS011;47645;45.288;12.038;2023-09-07T07:33:22;5.5;;;3.3;;
61739;SDS011;47645;45.288;12.038;2023-09-07T07:43:23;5.2;;;3.2;;
61739;SDS011;47645;45.288;12.038;2023-09-07T07:53:25;7.0;;;3.4;;
61739;SDS011;47645;45.288;12.038;2023-09-07T08:03:26;5.9;;;2.9;;
61739;SDS011;47645;45.288;12.038;2023-09-07T08:13:27;4.5;;;2.7;;
61739;SDS011;47645;45.288;12.038;2023-09-07T08:23:29;5.1;;;2.4;;
61739;SDS011;47645;45.288;12.038;2023-09-07T08:33:40;7.5;;;2.9;;
61739;SDS011;47645;45.288;12.038;2023-09-07T08:43:32;3.1;;;2.3;;
61739;SDS011;47645;45.288;12.038;2023-09-07T08:53:33;4.9;;;2.5;;
61739;SDS011;47645;45.288;12.038;2023-09-07T09:03:34;4.3;;;2.4;;
61739;SDS011;47645;45.288;12.038;2023-09-07T09:13:36;5.0;;;2.5;;
61739;SDS011;47645;45.288;12.038;2023-09-07T09:23:37;3.7;;;2.6;;
61739;SDS011;47645;45.288;12.038;2023-09-07T09:33:39;4.6;;;2.7;;
61739;SDS011;47645;45.288;12.038;2023-09-07T09:43:40;4.2;;;2.2;;
61739;SDS011;47645;45.288;12.038;2023-09-07T09:53:42;4.7;;;2.5;;
61739;SDS011;47645;45.288;12.038;2023-09-07T10:03:46;5.5;;;2.6;;
61739;SDS011;47645;45.288;12.038;2023-09-07T10:13:45;4.9;;;2.5;;
61739;SDS011;47645;45.288;12.038;2023-09-07T10:23:47;4.3;;;2.5;;
61739;SDS011;47645;45.288;12.038;2023-09-07T10:33:49;2.6;;;2.1;;
61739;SDS011;47645;45.288;12.038;2023-09-07T10:43:51;7.7;;;2.5;;
61739;SDS011;47645;45.288;12.038;2023-09-07T10:53:52;5.3;;;2.4;;
61739;SDS011;47645;45.288;12.038;2023-09-07T11:03:54;5.5;;;2.7;;
61739;SDS011;47645;45.288;12.038;2023-09-07T11:13:56;3.6;;;2.3;;
61739;SDS011;47645;45.288;12.038;2023-09-07T11:23:57;5.8;;;2.5;;
61739;SDS011;47645;45.288;12.038;2023-09-07T11:33:59;4.3;;;2.1;;
61739;SDS011;47645;45.288;12.038;2023-09-07T11:44:01;3.4;;;2.1;;
61739;SDS011;47645;45.288;12.038;2023-09-07T11:54:03;2.5;;;1.9;;
61739;SDS011;47645;45.288;12.038;2023-09-07T12:04:06;2.7;;;1.8;;
61739;SDS011;47645;45.288;12.038;2023-09-07T12:14:07;4.3;;;1.8;;
61739;SDS011;47645;45.288;12.038;2023-09-07T12:24:09;3.8;;;2.0;;
61739;SDS011;47645;45.288;12.038;2023-09-07T12:34:11;3.5;;;1.9;;
61739;SDS011;47645;45.288;12.038;2023-09-07T12:44:13;4.3;;;2.0;;
61739;SDS011;47645;45.288;12.038;2023-09-07T12:54:15;3.6;;;1.5;;
61739;SDS011;47645;45.288;12.038;2023-09-07T13:04:17;6.2;;;2.5;;
61739;SDS011;47645;45.288;12.038;2023-09-07T13:14:19;3.2;;;2.1;;
61739;SDS011;47645;45.288;12.038;2023-09-07T13:24:23;3.3;;;2.0;;
61739;SDS011;47645;45.288;12.038;2023-09-07T13:34:23;3.8;;;2.2;;
61739;SDS011;47645;45.288;12.038;2023-09-07T13:44:25;5.5;;;2.1;;
61739;SDS011;47645;45.288;12.038;2023-09-07T13:54:27;3.7;;;2.5;;
61739;SDS011;47645;45.288;12.038;2023-09-07T14:04:31;5.5;;;2.3;;
61739;SDS011;47645;45.288;12.038;2023-09-07T14:14:31;5.2;;;2.4;;
61739;SDS011;47645;45.288;12.038;2023-09-07T14:24:33;4.1;;;2.1;;
61739;SDS011;47645;45.288;12.038;2023-09-07T14:34:36;5.2;;;2.1;;
61739;SDS011;47645;45.288;12.038;2023-09-07T14:44:37;2.7;;;2.1;;
61739;SDS011;47645;45.288;12.038;2023-09-07T14:54:40;6.1;;;2.3;;
61739;SDS011;47645;45.288;12.038;2023-09-07T15:04:43;5.4;;;2.1;;
61739;SDS011;47645;45.288;12.038;2023-09-07T15:14:43;3.5;;;2.1;;
61739;SDS011;47645;45.288;12.038;2023-09-07T15:24:44;4.6;;;2.3;;
61739;SDS011;47645;45.288;12.038;2023-09-07T15:34:46;2.7;;;2.0;;
61739;SDS011;47645;45.288;12.038;2023-09-07T15:44:48;4.3;;;2.1;;
61739;SDS011;47645;45.288;12.038;2023-09-07T15:54:50;4.4;;;2.4;;
61739;SDS011;47645;45.288;12.038;2023-09-07T16:04:53;4.4;;;2.2;;
61739;SDS011;47645;45.288;12.038;2023-09-07T16:14:54;4.5;;;2.3;;
61739;SDS011;47645;45.288;12.038;2023-09-07T16:24:57;5.0;;;2.5;;
61739;SDS011;47645;45.288;12.038;2023-09-07T16:34:58;5.6;;;2.6;;
61739;SDS011;47645;45.288;12.038;2023-09-07T16:44:59;6.9;;;2.5;;
61739;SDS011;47645;45.288;12.038;2023-09-07T16:55:01;7.1;;;2.9;;
61739;SDS011;47645;45.288;12.038;2023-09-07T17:05:04;6.3;;;2.7;;
61739;SDS011;47645;45.288;12.038;2023-09-07T17:10:04;5.7;;;2.6;;
61739;SDS011;47645;45.288;12.038;2023-09-07T17:20:07;5.6;;;2.7;;
61739;SDS011;47645;45.288;12.038;2023-09-07T17:30:07;6.2;;;2.7;;
61739;SDS011;47645;45.288;12.038;2023-09-07T17:40:10;6.6;;;3.6;;
61739;SDS011;47645;45.288;12.038;2023-09-07T17:50:11;9.1;;;3.0;;
61739;SDS011;47645;45.288;12.038;2023-09-07T18:00:13;4.4;;;2.9;;
61739;SDS011;47645;45.288;12.038;2023-09-07T18:10:14;5.1;;;2.8;;
61739;SDS011;47645;45.288;12.038;2023-09-07T18:20:19;5.0;;;3.2;;
61739;SDS011;47645;45.288;12.038;2023-09-07T18:30:18;5.6;;;3.5;;
61739;SDS011;47645;45.288;12.038;2023-09-07T18:40:19;7.2;;;3.4;;
61739;SDS011;47645;45.288;12.038;2023-09-07T18:50:23;10.8;;;3.6;;
61739;SDS011;47645;45.288;12.038;2023-09-07T19:00:22;7.1;;;3.7;;
61739;SDS011;47645;45.288;12.038;2023-09-07T19:10:24;7.1;;;4.1;;
61739;SDS011;47645;45.288;12.038;2023-09-07T19:20:25;8.2;;;3.5;;
61739;SDS011;47645;45.288;12.038;2023-09-07T19:30:28;7.5;;;3.5;;
61739;SDS011;47645;45.288;12.038;2023-09-07T19:40:29;9.8;;;3.6;;
61739;SDS011;47645;45.288;12.038;2023-09-07T19:50:30;8.4;;;3.7;;
61739;SDS011;47645;45.288;12.038;2023-09-07T20:00:32;5.1;;;4.0;;
61739;SDS011;47645;45.288;12.038;2023-09-07T20:10:33;8.4;;;4.2;;
61739;SDS011;47645;45.288;12.038;2023-09-07T20:20:35;6.9;;;4.1;;
61739;SDS011;47645;45.288;12.038;2023-09-07T20:30:36;6.4;;;4.0;;
61739;SDS011;47645;45.288;12.038;2023-09-07T20:40:38;6.4;;;4.1;;
61739;SDS011;47645;45.288;12.038;2023-09-07T20:50:39;6.5;;;3.8;;
61739;SDS011;47645;45.288;12.038;2023-09-07T21:00:42;8.8;;;4.2;;
61739;SDS011;47645;45.288;12.038;2023-09-07T21:10:43;7.7;;;4.0;;
61739;SDS011;47645;45.288;12.038;2023-09-07T21:20:46;5.9;;;3.9;;
61739;SDS011;47645;45.288;12.038;2023-09-07T21:30:46;8.8;;;4.1;;
61739;SDS011;47645;45.288;12.038;2023-09-07T21:40:49;7.2;;;4.0;;
61739;SDS011;47645;45.288;12.038;2023-09-07T21:50:50;7.9;;;4.3;;
61739;SDS011;47645;45.288;12.038;2023-09-07T22:00:50;7.2;;;4.3;;
61739;SDS011;47645;45.288;12.038;2023-09-07T22:10:52;9.1;;;4.4;;
61739;SDS011;47645;45.288;12.038;2023-09-07T22:20:53;7.9;;;4.3;;
61739;SDS011;47645;45.288;12.038;2023-09-07T22:30:56;7.1;;;4.7;;
61739;SDS011;47645;45.288;12.038;2023-09-07T22:40:56;7.4;;;4.4;;
61739;SDS011;47645;45.288;12.038;2023-09-07T22:50:57;7.4;;;4.7;;
61739;SDS011;47645;45.288;12.038;2023-09-07T23:00:58;7.2;;;4.1;;
61739;SDS011;47645;45.288;12.038;2023-09-07T23:10:59;7.4;;;4.6;;
61739;SDS011;47645;45.288;12.038;2023-09-07T23:21:01;12.2;;;5.3;;
61739;SDS011;47645;45.288;12.038;2023-09-07T23:31:03;7.3;;;4.7;;
61739;SDS011;47645;45.288;12.038;2023-09-07T23:41:04;7.8;;;4.6;;
61739;SDS011;47645;45.288;12.038;2023-09-07T23:51:05;7.5;;;4.5;;
